Newburg Corners, Wisconsin
Current Conditions -  °F | °C
As of 9:53 AM on Sunday 23 Nov 2014 (Local Time) from KLSE Reporting Station
Overcast Overcast  
Wind Chill: 51°   Ceiling: 900
Heat Index: 51°   Visibility: 7mi
Dew Point: 49°   Wind: 8mph
Humidity: 92%   Direction: 170°S
Pressure: 29.52"   Gusts: NA
Location:  43.8385°N, 90.9811°W
Report Text: KLSE 231553Z 17007KT 7SM OVC009 11/09 A2952 RMK AO2 SLP001 T01060094
Loading
Personal Weather Stations






























Interactive Weather Map New forecast layout! Learn more

10-Day Weather Forecast

Advertisements
Track Severe Weather on mobile